Patrick Springs, Virginia
Current Conditions -  °F | °C
As of 1:35 PM on Monday 22 Dec 2014 (Local Time) from KMTV Reporting Station
Haze Haze  
Wind Chill: 32°   Ceiling: 600
Heat Index: 36°   Visibility: 3mi
Dew Point: 36°   Wind: 5mph
Humidity: 100%   Direction: 40°NE
Pressure: 30.11"   Gusts: NA
Location:  36.64°N, 80.19°W
Report Text: KMTV 221835Z AUTO 04004KT 3SM BR OVC006 02/02 A3011 RMK AO2 P0001 T00210021
Loading
Personal Weather Stations






























Interactive Weather Map New forecast layout! Learn more

10-Day Weather Forecast

Advertisements
Track Severe Weather on mobile